createdAt,value
2022-09-05T00:01:48.939Z,97653.00
2022-09-05T00:03:59.495Z,97649.25
2022-09-05T00:06:25.702Z,97655.66
2022-09-05T00:08:32.763Z,97648.97
2022-09-05T00:11:15.381Z,97658.81
2022-09-05T00:13:16.845Z,97651.06
2022-09-05T00:15:25.647Z,97648.63
2022-09-05T00:18:39.747Z,97640.91
2022-09-05T00:24:18.755Z,97636.09
2022-09-05T00:24:30.631Z,97632.44
2022-09-05T00:25:31.308Z,97625.34
2022-09-05T00:27:46.558Z,97628.03
2022-09-05T00:31:51.093Z,97630.69
2022-09-05T00:32:50.770Z,97632.72
2022-09-05T00:35:07.551Z,97637.41
2022-09-05T00:37:11.359Z,97643.38
2022-09-05T00:39:23.035Z,97649.88
2022-09-05T00:41:27.388Z,97651.97
2022-09-05T00:43:34.121Z,97640.84
2022-09-05T00:45:43.143Z,97644.31
2022-09-05T00:47:50.315Z,97649.69
2022-09-05T00:49:59.959Z,97648.38
2022-09-05T00:52:07.634Z,97648.75
2022-09-05T00:54:41.009Z,97647.06
2022-09-05T00:57:04.413Z,97643.66
2022-09-05T00:59:50.950Z,97643.75
2022-09-05T01:02:07.878Z,97641.41
2022-09-05T01:04:25.298Z,97649.44
2022-09-05T01:06:35.732Z,97649.31
2022-09-05T01:08:53.392Z,97651.09
2022-09-05T01:11:05.088Z,97657.25
2022-09-05T01:13:21.397Z,97648.47
2022-09-05T01:15:35.233Z,97651.88
2022-09-05T01:17:52.917Z,97649.44
2022-09-05T01:20:19.592Z,97643.09
2022-09-05T01:22:44.604Z,97644.25
2022-09-05T01:24:57.231Z,97639.53
2022-09-05T01:28:25.279Z,97625.03
2022-09-05T01:30:08.537Z,97624.94
2022-09-05T01:32:26.406Z,97612.97
2022-09-05T01:34:37.194Z,97624.81
2022-09-05T01:36:54.979Z,97619.09
2022-09-05T01:40:01.725Z,97613.91
2022-09-05T01:41:37.369Z,97622.75
2022-09-05T01:43:58.702Z,97621.81
2022-09-05T01:46:11.501Z,97623.59
2022-09-05T01:48:30.133Z,97619.00
2022-09-05T01:50:41.288Z,97623.59
2022-09-05T01:53:00.169Z,97628.50
2022-09-05T01:55:23.388Z,97624.25
2022-09-05T01:57:39.743Z,97625.19
2022-09-05T01:59:50.451Z,97622.75
2022-09-05T02:02:11.826Z,97625.47
2022-09-05T02:04:50.827Z,97618.22
2022-09-05T02:07:20.094Z,97620.03
2022-09-05T02:09:50.843Z,97613.13
2022-09-05T02:12:05.879Z,97620.13
2022-09-05T02:14:27.025Z,97620.94
2022-09-05T02:16:45.586Z,97608.06
2022-09-05T02:18:55.445Z,97608.97
2022-09-05T02:21:01.591Z,97612.56
2022-09-05T02:23:29.433Z,97616.25
2022-09-05T02:26:02.460Z,97608.78
2022-09-05T02:28:13.856Z,97613.50
2022-09-05T02:30:20.158Z,97615.38
2022-09-05T02:32:29.992Z,97619.69
2022-09-05T02:34:43.553Z,97618.19
2022-09-05T02:36:51.823Z,97623.38
2022-09-05T02:44:35.878Z,97618.75
2022-09-05T02:45:13.551Z,97619.53
2022-09-05T02:45:16.501Z,97622.34
2022-09-05T02:46:31.468Z,97619.91
2022-09-05T02:48:49.761Z,97621.44
2022-09-05T02:57:23.209Z,97625.75
2022-09-05T02:57:37.619Z,97625.94
2022-09-05T02:57:41.942Z,97623.84
2022-09-05T02:59:09.230Z,97624.81
2022-09-05T03:01:20.465Z,97622.06
2022-09-05T03:03:34.905Z,97619.44
2022-09-05T03:05:46.720Z,97616.91
2022-09-05T03:08:12.899Z,97612.63
2022-09-05T03:10:53.769Z,97608.41
2022-09-05T03:13:38.779Z,97612.06
2022-09-05T03:16:32.806Z,97622.16
2022-09-05T03:19:14.324Z,97619.63
2022-09-05T03:22:00.797Z,97618.66
2022-09-05T03:24:25.500Z,97620.53
2022-09-05T03:26:56.831Z,97619.97
2022-09-05T03:29:30.580Z,97626.25
2022-09-05T03:31:51.667Z,97621.16
2022-09-05T03:34:22.606Z,97619.66
2022-09-05T03:36:54.352Z,97620.75
2022-09-05T03:39:35.288Z,97628.75
2022-09-05T03:42:15.245Z,97616.59
2022-09-05T03:44:33.441Z,97617.44
2022-09-05T03:46:56.147Z,97627.91
2022-09-05T03:51:24.363Z,97618.31
2022-09-05T03:57:08.179Z,97623.47
2022-09-05T03:57:27.901Z,97629.09
2022-09-05T03:58:02.199Z,97619.69
2022-09-05T04:00:23.372Z,97620.63
2022-09-05T04:08:06.516Z,97626.75
2022-09-05T04:08:15.120Z,97629.28
2022-09-05T04:08:15.654Z,97633.69
2022-09-05T04:09:57.756Z,97633.53
2022-09-05T04:12:10.405Z,97635.03
2022-09-05T04:14:23.831Z,97626.38
2022-09-05T04:16:30.524Z,97620.19
2022-09-05T04:18:38.461Z,97626.47
2022-09-05T04:20:47.801Z,97620.38
2022-09-05T04:23:09.288Z,97624.00
2022-09-05T04:25:17.399Z,97619.50
2022-09-05T04:27:35.689Z,97621.69
2022-09-05T04:29:49.257Z,97624.41
2022-09-05T04:32:18.689Z,97634.03
2022-09-05T04:34:37.130Z,97629.94
2022-09-05T04:36:41.091Z,97626.56
2022-09-05T04:38:45.085Z,97625.88
2022-09-05T04:41:01.186Z,97621.47
2022-09-05T04:43:06.686Z,97624.88
2022-09-05T04:45:17.453Z,97622.31
2022-09-05T04:47:31.444Z,97626.06
2022-09-05T04:49:38.622Z,97626.41
2022-09-05T04:52:04.472Z,97628.47
2022-09-05T04:54:36.245Z,97633.00
2022-09-05T04:56:43.963Z,97630.41
2022-09-05T05:01:20.025Z,97629.75
2022-09-05T05:06:03.586Z,97628.25
2022-09-05T05:06:12.590Z,97634.50
2022-09-05T05:06:38.094Z,97637.31
2022-09-05T05:08:44.038Z,97638.09
2022-09-05T05:14:36.689Z,97642.50
2022-09-05T05:17:57.330Z,97646.06
2022-09-05T05:18:09.963Z,97641.91
2022-09-05T05:18:36.592Z,97641.22
2022-09-05T05:20:55.146Z,97644.44
2022-09-05T05:23:07.513Z,97641.72
2022-09-05T05:25:13.114Z,97644.44
2022-09-05T05:27:23.455Z,97655.81
2022-09-05T05:29:32.377Z,97660.81
2022-09-05T05:31:39.985Z,97666.53
2022-09-05T05:33:49.300Z,97656.69
2022-09-05T05:35:52.900Z,97668.53
2022-09-05T05:38:04.925Z,97668.19
2022-09-05T05:40:11.641Z,97666.34
2022-09-05T05:42:20.591Z,97674.22
2022-09-05T05:44:31.578Z,97674.06
2022-09-05T05:46:37.135Z,97674.72
2022-09-05T05:48:42.220Z,97679.81
2022-09-05T05:51:06.732Z,97684.84
2022-09-05T05:53:33.442Z,97689.91
2022-09-05T05:56:02.072Z,97689.81
2022-09-05T05:58:19.232Z,97684.47
2022-09-05T06:00:30.911Z,97684.38
2022-09-05T06:03:27.547Z,97686.41
2022-09-05T06:05:56.076Z,97687.94
2022-09-05T06:10:55.270Z,97691.28
2022-09-05T06:14:59.039Z,97698.44
2022-09-05T06:15:06.733Z,97695.84
2022-09-05T06:16:51.354Z,97696.72
2022-09-05T06:19:16.213Z,97691.34
2022-09-05T06:22:09.629Z,97694.00
2022-09-05T06:24:43.966Z,97691.69
2022-09-05T06:27:23.483Z,97697.38
2022-09-05T06:29:46.460Z,97690.00
2022-09-05T06:32:03.880Z,97690.75
2022-09-05T06:34:35.375Z,97697.63
2022-09-05T06:36:51.532Z,97691.25
2022-09-05T06:39:07.087Z,97691.06
2022-09-05T06:41:26.172Z,97689.94
2022-09-05T06:43:56.834Z,97684.41
2022-09-05T06:46:11.341Z,97683.28
2022-09-05T06:48:24.944Z,97693.75
2022-09-05T06:51:09.454Z,97684.13
2022-09-05T06:53:45.508Z,97690.16
2022-09-05T06:55:59.598Z,97677.72
2022-09-05T06:58:43.385Z,97681.97
2022-09-05T07:00:48.749Z,97692.34
2022-09-05T07:03:17.073Z,97687.72
2022-09-05T07:05:42.661Z,97688.22
2022-09-05T07:07:52.879Z,97692.38
2022-09-05T07:10:06.072Z,97693.94
2022-09-05T07:12:22.112Z,97695.47
2022-09-05T07:14:30.227Z,97699.69
2022-09-05T07:16:47.536Z,97698.88
2022-09-05T07:19:03.144Z,97703.94
2022-09-05T07:21:16.505Z,97700.34
2022-09-05T07:23:49.318Z,97702.63
2022-09-05T07:26:00.028Z,97701.75
2022-09-05T07:28:28.345Z,97695.91
2022-09-05T07:30:34.728Z,97696.88
2022-09-05T07:32:43.987Z,97696.69
2022-09-05T07:34:49.414Z,97689.53
2022-09-05T07:37:13.787Z,97693.75
2022-09-05T07:39:28.691Z,97697.81
2022-09-05T07:41:34.207Z,97698.28
2022-09-05T07:43:41.736Z,97699.72
2022-09-05T07:45:55.553Z,97697.53
2022-09-05T07:48:04.807Z,97696.22
2022-09-05T07:53:34.721Z,97693.31
2022-09-05T07:56:51.733Z,97689.28
2022-09-05T07:56:58.478Z,97695.69
2022-09-05T07:57:51.395Z,97694.16
2022-09-05T07:59:58.810Z,97694.72
2022-09-05T08:02:04.268Z,97691.91
2022-09-05T08:04:06.865Z,97696.13
2022-09-05T08:06:15.831Z,97691.41
2022-09-05T08:09:18.095Z,97701.69
2022-09-05T08:11:23.587Z,97696.22
2022-09-05T08:13:46.572Z,97696.47
2022-09-05T08:16:09.801Z,97692.03
2022-09-05T08:18:23.902Z,97689.09
2022-09-05T08:20:33.976Z,97688.06
2022-09-05T08:22:52.204Z,97689.47
2022-09-05T08:25:01.176Z,97691.03
2022-09-05T08:27:16.743Z,97688.94
2022-09-05T08:29:31.906Z,97694.66
2022-09-05T08:31:42.161Z,97683.91
2022-09-05T08:33:49.567Z,97679.28
2022-09-05T08:35:57.795Z,97682.56
2022-09-05T08:38:04.416Z,97686.78
2022-09-05T08:40:12.634Z,97688.28
2022-09-05T08:42:29.593Z,97681.94
2022-09-05T08:46:47.453Z,97686.97
2022-09-05T08:47:11.383Z,97684.13
2022-09-05T08:49:49.392Z,97682.97
2022-09-05T08:51:55.847Z,97684.56
2022-09-05T08:54:24.552Z,97682.44
2022-09-05T08:56:32.728Z,97685.63
2022-09-05T08:59:27.127Z,97680.88
2022-09-05T09:01:22.607Z,97686.78
2022-09-05T09:03:33.499Z,97682.16
2022-09-05T09:06:14.334Z,97679.41
2022-09-05T09:08:25.227Z,97675.59
2022-09-05T09:10:35.936Z,97676.34
2022-09-05T09:13:04.778Z,97673.50
2022-09-05T09:15:16.572Z,97677.63
2022-09-05T09:17:24.258Z,97667.97
2022-09-05T09:19:41.381Z,97677.31
2022-09-05T09:21:58.211Z,97671.50
2022-09-05T09:24:13.550Z,97665.97
2022-09-05T09:26:17.423Z,97663.13
2022-09-05T09:28:51.074Z,97655.00
2022-09-05T09:30:58.207Z,97657.19
2022-09-05T09:33:05.479Z,97662.25
2022-09-05T09:35:28.148Z,97662.16
2022-09-05T09:38:14.578Z,97650.53
2022-09-05T09:40:31.030Z,97646.81
2022-09-05T09:42:45.339Z,97641.50
2022-09-05T09:45:29.029Z,97640.47
2022-09-05T09:47:59.171Z,97644.66
2022-09-05T09:50:18.846Z,97647.13
2022-09-05T09:52:59.543Z,97650.28
2022-09-05T09:55:42.674Z,97640.44
2022-09-05T09:58:04.701Z,97634.16
2022-09-05T10:00:11.600Z,97648.44
2022-09-05T10:07:21.283Z,97644.66
2022-09-05T10:10:35.506Z,97643.38
2022-09-05T10:10:47.500Z,97639.44
2022-09-05T10:13:56.959Z,97636.13
2022-09-05T10:16:38.382Z,97641.28
2022-09-05T10:19:01.219Z,97638.41
2022-09-05T10:21:25.607Z,97637.34
2022-09-05T10:23:57.329Z,97636.88
2022-09-05T10:26:33.509Z,97633.91
2022-09-05T10:28:45.018Z,97631.16
2022-09-05T10:32:12.136Z,97632.72
2022-09-05T10:35:05.992Z,97626.69
2022-09-05T10:36:02.565Z,97623.72
2022-09-05T10:38:11.231Z,97616.47
2022-09-05T10:40:18.921Z,97603.81
2022-09-05T10:42:30.234Z,97614.34
2022-09-05T10:44:40.574Z,97614.03
2022-09-05T10:46:53.007Z,97614.28
2022-09-05T10:49:01.833Z,97606.78
2022-09-05T10:51:17.226Z,97603.56
2022-09-05T10:53:39.824Z,97601.72
2022-09-05T10:55:54.949Z,97606.22
2022-09-05T10:58:05.634Z,97605.00
2022-09-05T11:02:21.865Z,97606.59
2022-09-05T11:02:58.309Z,97600.19
2022-09-05T11:05:09.313Z,97592.00
2022-09-05T11:07:16.278Z,97594.28
2022-09-05T11:09:29.169Z,97598.16
2022-09-05T11:11:45.817Z,97592.47
2022-09-05T11:13:50.954Z,97589.72
2022-09-05T11:16:08.315Z,97585.75
2022-09-05T11:18:23.110Z,97589.44
2022-09-05T11:21:04.799Z,97584.75
2022-09-05T11:23:12.906Z,97582.66
2022-09-05T11:25:20.544Z,97579.53
2022-09-05T11:27:47.507Z,97576.00
2022-09-05T11:29:53.558Z,97567.53
2022-09-05T11:35:58.153Z,97574.53
2022-09-05T11:39:56.956Z,97570.66
2022-09-05T11:40:02.802Z,97572.97
2022-09-05T11:40:49.299Z,97573.69
2022-09-05T11:43:40.455Z,97576.91
2022-09-05T11:46:30.003Z,97569.84
2022-09-05T11:49:05.438Z,97572.66
2022-09-05T11:51:53.143Z,97570.84
2022-09-05T11:54:27.983Z,97564.88
2022-09-05T11:57:33.858Z,97565.19
2022-09-05T12:00:30.780Z,97565.97
2022-09-05T12:02:32.735Z,97564.81
2022-09-05T12:05:50.129Z,97562.84
2022-09-05T12:07:36.125Z,97565.19
2022-09-05T12:09:59.486Z,97556.63
2022-09-05T12:12:34.199Z,97557.09
2022-09-05T12:14:54.930Z,97552.50
2022-09-05T12:17:10.174Z,97556.78
2022-09-05T12:19:27.887Z,97541.09
2022-09-05T12:21:38.170Z,97544.69
2022-09-05T12:24:13.565Z,97537.16
2022-09-05T12:27:38.043Z,97540.00
2022-09-05T12:29:33.692Z,97537.34
2022-09-05T12:32:50.444Z,97535.38
2022-09-05T12:36:04.362Z,97528.16
2022-09-05T12:40:56.188Z,97533.06
2022-09-05T12:41:00.969Z,97534.84
2022-09-05T12:41:46.170Z,97529.75
2022-09-05T12:44:39.522Z,97521.53
2022-09-05T12:46:24.170Z,97516.84
2022-09-05T12:48:38.560Z,97520.63
2022-09-05T12:50:52.020Z,97518.25
2022-09-05T12:53:02.883Z,97513.88
2022-09-05T12:55:12.051Z,97509.09
2022-09-05T13:00:58.586Z,97504.88
2022-09-05T13:02:56.721Z,97500.81
2022-09-05T13:03:02.752Z,97498.66
2022-09-05T13:05:01.157Z,97500.69
2022-09-05T13:07:09.661Z,97496.75
2022-09-05T13:09:22.146Z,97492.28
2022-09-05T13:14:49.039Z,97498.13
2022-09-05T13:14:58.637Z,97497.31
2022-09-05T13:16:23.826Z,97489.84
2022-09-05T13:18:34.171Z,97489.91
2022-09-05T13:20:39.767Z,97484.13
2022-09-05T13:22:48.656Z,97476.88
2022-09-05T13:24:59.836Z,97467.66
2022-09-05T13:27:13.669Z,97466.44
2022-09-05T13:29:19.392Z,97468.66
2022-09-05T13:38:08.026Z,97471.84
2022-09-05T13:38:15.469Z,97460.47
2022-09-05T13:38:20.017Z,97471.91
2022-09-05T13:39:20.261Z,97462.72
2022-09-05T13:41:28.630Z,97460.44
2022-09-05T13:43:38.098Z,97448.78
2022-09-05T13:46:04.823Z,97450.03
2022-09-05T13:48:30.069Z,97447.13
2022-09-05T13:50:37.620Z,97448.56
2022-09-05T13:52:45.512Z,97444.63
2022-09-05T13:54:52.960Z,97444.84
2022-09-05T13:57:06.813Z,97447.31
2022-09-05T13:59:15.268Z,97442.13
2022-09-05T14:01:37.887Z,97439.19
2022-09-05T14:05:05.345Z,97444.41
2022-09-05T14:09:57.130Z,97434.63
2022-09-05T14:12:09.554Z,97432.88
2022-09-05T14:15:08.304Z,97434.72
2022-09-05T14:16:53.704Z,97434.06
2022-09-05T14:19:15.126Z,97426.25
2022-09-05T14:21:18.209Z,97425.94
2022-09-05T14:23:26.644Z,97434.59
2022-09-05T14:25:36.239Z,97433.06
2022-09-05T14:27:44.220Z,97428.00
2022-09-05T14:29:50.829Z,97432.06
2022-09-05T14:37:39.024Z,97420.97
2022-09-05T14:37:39.636Z,97434.63
2022-09-05T14:38:01.238Z,97415.44
2022-09-05T14:40:29.903Z,97421.69
2022-09-05T14:42:51.019Z,97420.59
2022-09-05T14:45:13.940Z,97422.59
2022-09-05T14:47:49.110Z,97426.13
2022-09-05T14:50:07.122Z,97427.88
2022-09-05T14:52:18.634Z,97425.38
2022-09-05T14:58:49.214Z,97422.06
2022-09-05T15:02:43.897Z,97413.28
2022-09-05T15:02:49.657Z,97410.44
2022-09-05T15:04:39.770Z,97420.69
2022-09-05T15:07:00.639Z,97414.41
2022-09-05T15:12:15.940Z,97422.25
2022-09-05T15:12:26.015Z,97418.06
2022-09-05T15:13:57.376Z,97411.34
2022-09-05T15:16:09.235Z,97412.28
2022-09-05T15:18:19.811Z,97405.13
2022-09-05T15:20:35.761Z,97414.28
2022-09-05T15:22:43.302Z,97404.34
2022-09-05T15:25:01.403Z,97399.19
2022-09-05T15:27:19.631Z,97406.59
2022-09-05T15:29:25.572Z,97416.34
2022-09-05T15:31:28.694Z,97410.97
2022-09-05T15:33:33.083Z,97418.88
2022-09-05T15:35:37.930Z,97410.84
2022-09-05T15:37:42.418Z,97417.53
2022-09-05T15:39:45.066Z,97413.69
2022-09-05T15:41:47.931Z,97407.16
2022-09-05T15:43:58.279Z,97408.31
2022-09-05T15:46:02.906Z,97406.78
2022-09-05T15:48:16.091Z,97406.28
2022-09-05T15:50:26.364Z,97410.13
2022-09-05T15:52:39.863Z,97404.44
2022-09-05T15:54:50.213Z,97401.94
2022-09-05T15:56:54.703Z,97401.97
2022-09-05T15:59:00.424Z,97393.75
2022-09-05T16:01:12.775Z,97400.47
2022-09-05T16:06:39.071Z,97394.25
2022-09-05T16:10:31.137Z,97398.97
2022-09-05T16:10:43.462Z,97390.91
2022-09-05T16:12:03.477Z,97391.94
2022-09-05T16:13:53.036Z,97394.25
2022-09-05T16:19:25.024Z,97388.91
2022-09-05T16:23:16.180Z,97388.72
2022-09-05T16:23:31.185Z,97385.56
2022-09-05T16:23:41.812Z,97389.94
2022-09-05T16:25:48.776Z,97383.19
2022-09-05T16:27:55.684Z,97380.84
2022-09-05T16:29:59.549Z,97382.34
2022-09-05T16:32:18.887Z,97370.63
2022-09-05T16:34:29.732Z,97382.69
2022-09-05T16:36:41.741Z,97380.66
2022-09-05T16:38:56.910Z,97378.69
2022-09-05T16:41:05.509Z,97375.75
2022-09-05T16:43:13.244Z,97382.09
2022-09-05T16:45:25.137Z,97378.03
2022-09-05T16:47:35.106Z,97380.03
2022-09-05T16:49:43.083Z,97372.66
2022-09-05T16:51:50.452Z,97377.28
2022-09-05T16:53:59.576Z,97372.59
2022-09-05T16:56:05.390Z,97372.53
2022-09-05T16:58:14.177Z,97373.31
2022-09-05T17:00:17.128Z,97367.78
2022-09-05T17:02:28.422Z,97375.75
2022-09-05T17:04:56.337Z,97382.59
2022-09-05T17:07:14.702Z,97380.00
2022-09-05T17:09:25.206Z,97379.66
2022-09-05T17:11:29.918Z,97380.94
2022-09-05T17:13:42.055Z,97371.22
2022-09-05T17:15:51.610Z,97369.59
2022-09-05T17:18:22.565Z,97375.56
2022-09-05T17:20:28.582Z,97366.31
2022-09-05T17:25:06.985Z,97369.44
2022-09-05T17:29:23.803Z,97369.06
2022-09-05T17:29:35.089Z,97377.09
2022-09-05T17:32:28.924Z,97373.31
2022-09-05T17:35:18.174Z,97373.22
2022-09-05T17:37:46.982Z,97369.47
2022-09-05T17:39:59.261Z,97372.63
2022-09-05T17:42:22.322Z,97366.06
2022-09-05T17:44:32.757Z,97367.38
2022-09-05T17:46:43.534Z,97365.16
2022-09-05T17:49:18.785Z,97368.59
2022-09-05T17:52:02.008Z,97367.19
2022-09-05T17:54:27.862Z,97372.44
2022-09-05T17:56:34.920Z,97366.72
2022-09-05T17:58:49.092Z,97365.50
2022-09-05T18:01:07.522Z,97365.50
2022-09-05T18:03:10.319Z,97371.09
2022-09-05T18:05:57.648Z,97365.25
2022-09-05T18:08:02.216Z,97364.56
2022-09-05T18:10:14.736Z,97359.50
2022-09-05T18:13:13.419Z,97370.78
2022-09-05T18:15:05.072Z,97378.56
2022-09-05T18:20:23.370Z,97380.44
2022-09-05T18:22:29.373Z,97377.38
2022-09-05T18:24:37.470Z,97380.47
2022-09-05T18:26:44.114Z,97385.94
2022-09-05T18:31:58.946Z,97389.31
2022-09-05T18:34:35.215Z,97387.78
2022-09-05T18:36:39.159Z,97389.75
2022-09-05T18:38:50.987Z,97394.53
2022-09-05T18:41:12.293Z,97397.09
2022-09-05T18:43:25.343Z,97401.34
2022-09-05T18:45:33.607Z,97405.41
2022-09-05T18:47:53.100Z,97403.59
2022-09-05T18:50:25.235Z,97397.72
2022-09-05T18:52:29.876Z,97410.47
2022-09-05T18:54:34.439Z,97404.59
2022-09-05T18:57:09.733Z,97402.38
2022-09-05T18:59:13.102Z,97401.09
2022-09-05T19:01:23.106Z,97405.06
2022-09-05T19:03:34.636Z,97405.47
2022-09-05T19:05:45.554Z,97407.53
2022-09-05T19:07:59.359Z,97414.00
2022-09-05T19:10:20.564Z,97417.63
2022-09-05T19:12:34.941Z,97412.44
2022-09-05T19:14:49.576Z,97412.75
2022-09-05T19:16:52.338Z,97408.66
2022-09-05T19:19:16.358Z,97410.19
2022-09-05T19:21:21.785Z,97409.63
2022-09-05T19:23:29.068Z,97411.63
2022-09-05T19:25:35.564Z,97404.88
2022-09-05T19:30:31.135Z,97405.31
2022-09-05T19:36:49.643Z,97398.59
2022-09-05T19:36:51.245Z,97404.19
2022-09-05T19:36:54.921Z,97407.25
2022-09-05T19:37:28.865Z,97409.34
2022-09-05T19:42:01.793Z,97410.03
2022-09-05T19:47:41.358Z,97397.28
2022-09-05T19:47:43.858Z,97403.59
2022-09-05T19:47:45.138Z,97402.16
2022-09-05T19:49:22.679Z,97402.00
2022-09-05T19:51:26.963Z,97401.56
2022-09-05T19:53:29.732Z,97395.53
2022-09-05T19:55:37.678Z,97393.16
2022-09-05T19:57:40.422Z,97392.72
2022-09-05T19:59:45.902Z,97392.81
2022-09-05T20:01:48.921Z,97386.94
2022-09-05T20:03:53.761Z,97387.06
2022-09-05T20:05:56.639Z,97380.50
2022-09-05T20:08:02.007Z,97384.41
2022-09-05T20:10:06.463Z,97379.34
2022-09-05T20:12:19.822Z,97380.59
2022-09-05T20:14:29.156Z,97380.28
2022-09-05T20:16:31.964Z,97376.06
2022-09-05T20:18:41.135Z,97379.00
2022-09-05T20:20:51.780Z,97368.78
2022-09-05T20:22:59.236Z,97378.25
2022-09-05T20:25:03.791Z,97377.81
2022-09-05T20:27:06.875Z,97372.06
2022-09-05T20:29:13.085Z,97375.06
2022-09-05T20:31:17.779Z,97375.47
2022-09-05T20:33:24.584Z,97376.81
2022-09-05T20:40:06.817Z,97375.25
2022-09-05T20:43:22.128Z,97378.44
2022-09-05T20:43:22.129Z,97374.56
2022-09-05T20:43:24.417Z,97373.66
2022-09-05T20:45:11.118Z,97375.84
2022-09-05T20:54:08.451Z,97375.41
2022-09-05T20:54:08.902Z,97378.59
2022-09-05T20:54:16.435Z,97377.28
2022-09-05T20:54:42.397Z,97385.66
2022-09-05T20:56:48.290Z,97387.84
2022-09-05T20:59:00.878Z,97385.44
2022-09-05T21:01:20.222Z,97391.00
2022-09-05T21:03:31.302Z,97388.59
2022-09-05T21:05:35.616Z,97390.03
2022-09-05T21:07:39.950Z,97392.09
2022-09-05T21:09:54.654Z,97402.84
2022-09-05T21:11:58.724Z,97395.16
2022-09-05T21:14:04.736Z,97391.78
2022-09-05T21:16:16.973Z,97394.09
2022-09-05T21:18:22.369Z,97388.88
2022-09-05T21:20:25.547Z,97387.47
2022-09-05T21:22:43.120Z,97382.44
2022-09-05T21:24:47.327Z,97380.00
2022-09-05T21:26:51.180Z,97378.31
2022-09-05T21:29:04.838Z,97378.81
2022-09-05T21:31:16.014Z,97377.13
2022-09-05T21:33:24.218Z,97377.41
2022-09-05T21:35:47.341Z,97377.53
2022-09-05T21:37:49.949Z,97386.31
2022-09-05T21:39:58.465Z,97379.06
2022-09-05T21:42:19.939Z,97385.94
2022-09-05T21:47:37.492Z,97386.91
2022-09-05T21:47:39.907Z,97384.25
2022-09-05T21:49:15.233Z,97377.13
2022-09-05T21:51:25.001Z,97385.81
2022-09-05T21:59:10.280Z,97384.00
2022-09-05T21:59:22.225Z,97383.28
2022-09-05T21:59:24.725Z,97385.22
2022-09-05T22:00:39.503Z,97381.00
2022-09-05T22:02:42.138Z,97382.09
2022-09-05T22:04:47.101Z,97383.31
2022-09-05T22:06:50.109Z,97380.06
2022-09-05T22:09:12.898Z,97383.22
2022-09-05T22:11:16.029Z,97374.66
2022-09-05T22:13:18.623Z,97366.94
2022-09-05T22:15:27.451Z,97381.16
2022-09-05T22:17:32.460Z,97378.66
2022-09-05T22:19:37.620Z,97376.25
2022-09-05T22:21:42.051Z,97373.72
2022-09-05T22:23:48.071Z,97370.47
2022-09-05T22:25:50.861Z,97371.66
2022-09-05T22:27:57.353Z,97360.47
2022-09-05T22:30:00.127Z,97361.53
2022-09-05T22:32:03.989Z,97362.63
2022-09-05T22:34:06.583Z,97365.38
2022-09-05T22:36:09.254Z,97363.81
2022-09-05T22:38:19.774Z,97372.84
2022-09-05T22:40:22.640Z,97363.44
2022-09-05T22:42:25.477Z,97364.44
2022-09-05T22:44:28.020Z,97369.94
2022-09-05T22:46:31.439Z,97366.56
2022-09-05T22:48:34.067Z,97368.53
2022-09-05T22:50:37.441Z,97368.03
2022-09-05T22:52:40.017Z,97361.16
2022-09-05T22:54:43.924Z,97362.25
2022-09-05T22:56:46.503Z,97365.13
2022-09-05T22:58:49.133Z,97367.16
2022-09-05T23:00:51.709Z,97369.94
2022-09-05T23:02:57.620Z,97369.34
2022-09-05T23:05:00.191Z,97367.91
2022-09-05T23:07:03.440Z,97371.50
2022-09-05T23:09:06.042Z,97369.94
2022-09-05T23:11:11.874Z,97364.84
2022-09-05T23:13:14.515Z,97360.78
2022-09-05T23:15:17.611Z,97365.22
2022-09-05T23:17:20.276Z,97368.94
2022-09-05T23:19:22.858Z,97363.75
2022-09-05T23:21:25.482Z,97359.91
2022-09-05T23:23:28.070Z,97355.69
2022-09-05T23:25:30.607Z,97365.66
2022-09-05T23:27:37.265Z,97359.66
2022-09-05T23:29:39.832Z,97359.03
2022-09-05T23:31:42.408Z,97356.50
2022-09-05T23:33:45.030Z,97355.78
2022-09-05T23:35:47.619Z,97343.63
2022-09-05T23:37:50.242Z,97345.53
2022-09-05T23:39:52.856Z,97350.06
2022-09-05T23:41:55.425Z,97346.56
2022-09-05T23:43:59.354Z,97346.31
2022-09-05T23:46:02.536Z,97354.56
2022-09-05T23:48:05.655Z,97357.94
2022-09-05T23:50:08.791Z,97353.81
2022-09-05T23:52:11.372Z,97357.44
2022-09-05T23:54:14.011Z,97350.44
2022-09-05T23:56:16.580Z,97347.06
2022-09-05T23:58:19.127Z,97345.41
